createdAt,value
2022-12-23T00:00:58.211Z,153.05
2022-12-23T00:04:00.455Z,116.55
2022-12-23T00:07:02.512Z,136.48
2022-12-23T00:10:04.889Z,167.05
2022-12-23T00:13:25.419Z,154.02
2022-12-23T00:16:27.562Z,139.73
2022-12-23T00:19:29.546Z,129.23
2022-12-23T00:22:50.847Z,78.07
2022-12-23T00:25:52.827Z,114.10
2022-12-23T00:28:58.749Z,114.93
2022-12-23T00:32:00.802Z,141.57
2022-12-23T00:35:02.879Z,153.45
2022-12-23T00:38:04.951Z,130.35
2022-12-23T00:41:29.355Z,123.30
2022-12-23T00:44:31.843Z,128.93
2022-12-23T00:47:52.431Z,127.90
2022-12-23T00:50:54.419Z,114.60
2022-12-23T00:53:56.439Z,129.13
2022-12-23T00:56:58.818Z,119.55
2022-12-23T01:00:00.791Z,140.97
2022-12-23T01:03:21.318Z,135.40
2022-12-23T01:06:23.355Z,132.20
2022-12-23T01:09:25.501Z,127.05
2022-12-23T01:12:27.685Z,143.50
2022-12-23T01:15:29.987Z,130.18
2022-12-23T01:18:32.082Z,141.05
2022-12-23T01:21:34.173Z,147.90
2022-12-23T01:24:36.200Z,137.60
2022-12-23T01:27:38.233Z,123.30
2022-12-23T01:30:40.253Z,121.67
2022-12-23T01:33:42.234Z,129.00
2022-12-23T01:36:44.341Z,102.57
2022-12-23T01:39:46.410Z,129.20
2022-12-23T01:42:48.517Z,126.10
2022-12-23T01:45:50.608Z,130.05
2022-12-23T01:48:53.297Z,135.25
2022-12-23T01:51:55.314Z,119.93
2022-12-23T01:54:57.541Z,121.00
2022-12-23T01:58:03.285Z,139.90
2022-12-23T02:01:24.586Z,130.83
2022-12-23T02:04:26.776Z,133.40
2022-12-23T02:07:47.937Z,143.63
2022-12-23T02:11:08.082Z,142.10
2022-12-23T02:14:37.077Z,164.52
2022-12-23T02:17:51.425Z,148.52
2022-12-23T02:21:05.334Z,158.80
2022-12-23T02:24:13.497Z,155.10
2022-12-23T02:27:17.201Z,149.68
2022-12-23T02:30:30.737Z,145.70
2022-12-23T02:33:38.887Z,143.40
2022-12-23T02:36:49.071Z,134.70
2022-12-23T02:40:00.267Z,136.80
2022-12-23T02:43:20.837Z,141.00
2022-12-23T02:46:29.815Z,147.23
2022-12-23T02:49:36.881Z,135.95
2022-12-23T02:52:39.228Z,124.72
2022-12-23T02:55:42.257Z,132.93
2022-12-23T02:59:05.643Z,157.82
2022-12-23T03:02:07.977Z,138.05
2022-12-23T03:05:29.727Z,143.53
2022-12-23T03:08:43.177Z,145.77
2022-12-23T03:12:03.785Z,149.23
2022-12-23T03:15:15.500Z,138.02
2022-12-23T03:18:26.485Z,138.77
2022-12-23T03:21:31.354Z,151.10
2022-12-23T03:24:37.541Z,161.68
2022-12-23T03:27:41.320Z,171.37
2022-12-23T03:30:46.467Z,172.20
2022-12-23T03:33:52.018Z,159.18
2022-12-23T03:36:55.874Z,156.63
2022-12-23T03:40:01.246Z,145.57
2022-12-23T03:43:05.221Z,160.57
2022-12-23T03:46:11.624Z,143.23
2022-12-23T03:49:16.630Z,143.43
2022-12-23T03:52:24.657Z,159.73
2022-12-23T03:55:29.876Z,157.07
2022-12-23T03:58:31.854Z,159.13
2022-12-23T04:01:48.949Z,154.95
2022-12-23T04:04:56.442Z,169.40
2022-12-23T04:07:58.406Z,175.50
2022-12-23T04:11:01.217Z,165.10
2022-12-23T04:14:03.352Z,181.48
2022-12-23T04:17:05.365Z,178.88
2022-12-23T04:20:07.745Z,177.70
2022-12-23T04:23:09.798Z,183.68
2022-12-23T04:26:11.830Z,167.32
2022-12-23T04:29:13.824Z,170.73
2022-12-23T04:32:15.979Z,188.27
2022-12-23T04:35:18.034Z,155.32
2022-12-23T04:38:20.155Z,197.10
2022-12-23T04:41:22.353Z,173.57
2022-12-23T04:44:24.374Z,155.00
2022-12-23T04:47:26.943Z,185.60
2022-12-23T04:50:28.992Z,168.20
2022-12-23T04:53:31.067Z,183.50
2022-12-23T04:56:33.118Z,179.73
2022-12-23T04:59:35.214Z,224.57
2022-12-23T05:02:37.397Z,190.75
2022-12-23T05:05:43.387Z,176.30
2022-12-23T05:08:45.404Z,183.03
2022-12-23T05:11:47.442Z,182.13
2022-12-23T05:14:49.474Z,153.27
2022-12-23T05:17:51.453Z,175.02
2022-12-23T05:20:53.597Z,171.02
2022-12-23T05:23:55.731Z,189.60
2022-12-23T05:26:59.995Z,179.77
2022-12-23T05:30:03.063Z,196.33
2022-12-23T05:33:05.131Z,157.95
2022-12-23T05:36:07.303Z,191.32
2022-12-23T05:39:09.509Z,217.17
2022-12-23T05:42:11.510Z,199.73
2022-12-23T05:45:13.523Z,194.07
2022-12-23T05:48:15.584Z,191.77
2022-12-23T05:51:17.574Z,197.80
2022-12-23T05:54:19.614Z,179.73
2022-12-23T05:57:21.714Z,195.60
2022-12-23T06:00:23.764Z,202.57
2022-12-23T06:03:26.030Z,216.70
2022-12-23T06:06:28.848Z,202.63
2022-12-23T06:09:30.974Z,204.97
2022-12-23T06:12:33.107Z,228.75
2022-12-23T06:15:35.104Z,229.93
2022-12-23T06:18:37.133Z,229.60
2022-12-23T06:21:39.145Z,240.88
2022-12-23T06:24:41.538Z,205.52
2022-12-23T06:27:43.642Z,177.00
2022-12-23T06:30:45.677Z,170.67
2022-12-23T06:33:47.658Z,175.50
2022-12-23T06:36:49.733Z,150.02
2022-12-23T06:39:51.786Z,179.80
2022-12-23T06:42:53.830Z,169.70
2022-12-23T06:45:55.860Z,161.70
2022-12-23T06:48:57.931Z,141.10
2022-12-23T06:51:59.977Z,146.57
2022-12-23T06:55:02.007Z,142.18
2022-12-23T06:58:05.053Z,151.88
2022-12-23T07:01:07.332Z,133.33
2022-12-23T07:04:10.444Z,137.35
2022-12-23T07:07:12.477Z,167.55
2022-12-23T07:10:14.535Z,167.57
2022-12-23T07:13:16.811Z,147.40
2022-12-23T07:16:18.831Z,128.27
2022-12-23T07:19:20.831Z,136.18
2022-12-23T07:22:22.932Z,143.38
2022-12-23T07:25:24.967Z,138.52
2022-12-23T07:28:27.054Z,157.60
2022-12-23T07:31:29.394Z,158.80
2022-12-23T07:34:31.451Z,117.47
2022-12-23T07:37:33.469Z,167.00
2022-12-23T07:40:35.840Z,99.70
2022-12-23T07:43:37.902Z,134.68
2022-12-23T07:46:40.011Z,118.00
2022-12-23T07:49:42.235Z,103.40
2022-12-23T07:52:44.252Z,121.18
2022-12-23T07:55:48.088Z,138.57
2022-12-23T07:58:54.133Z,122.68
2022-12-23T08:01:56.229Z,110.67
2022-12-23T08:04:58.275Z,137.43
2022-12-23T08:08:00.304Z,132.63
2022-12-23T08:11:03.648Z,139.23
2022-12-23T08:14:05.662Z,102.50
2022-12-23T08:17:08.093Z,87.22
2022-12-23T08:20:10.409Z,99.47
2022-12-23T08:23:12.411Z,105.45
2022-12-23T08:26:15.798Z,105.25
2022-12-23T08:29:17.789Z,96.45
2022-12-23T08:32:20.121Z,97.47
2022-12-23T08:35:22.125Z,97.68
2022-12-23T08:38:24.111Z,84.85
2022-12-23T08:41:29.616Z,106.53
2022-12-23T08:44:32.757Z,98.65
2022-12-23T08:47:34.804Z,108.00
2022-12-23T08:50:38.168Z,99.35
2022-12-23T08:53:40.454Z,90.78
2022-12-23T08:56:43.231Z,118.45
2022-12-23T08:59:45.258Z,113.30
2022-12-23T09:02:47.693Z,80.70
2022-12-23T09:05:49.837Z,93.38
2022-12-23T09:08:52.199Z,90.75
2022-12-23T09:11:54.227Z,103.83
2022-12-23T09:14:56.290Z,61.95
2022-12-23T09:17:58.334Z,80.03
2022-12-23T09:21:01.220Z,93.47
2022-12-23T09:24:03.356Z,91.38
2022-12-23T09:27:05.336Z,93.70
2022-12-23T09:30:07.531Z,92.50
2022-12-23T09:33:09.596Z,94.73
2022-12-23T09:36:11.620Z,121.75
2022-12-23T09:39:13.665Z,86.63
2022-12-23T09:42:26.785Z,97.13
2022-12-23T09:45:41.023Z,105.53
2022-12-23T09:48:48.349Z,113.80
2022-12-23T09:51:52.629Z,96.07
2022-12-23T09:54:55.300Z,117.63
2022-12-23T09:58:08.149Z,86.07
2022-12-23T10:01:13.901Z,90.90
2022-12-23T10:04:21.983Z,70.67
2022-12-23T10:07:32.338Z,104.85
2022-12-23T10:10:36.661Z,109.32
2022-12-23T10:13:41.039Z,99.13
2022-12-23T10:16:44.935Z,74.00
2022-12-23T10:19:48.033Z,91.15
2022-12-23T10:22:50.658Z,81.78
2022-12-23T10:25:52.802Z,92.40
2022-12-23T10:29:05.879Z,88.43
2022-12-23T10:32:16.978Z,82.72
2022-12-23T10:35:22.214Z,90.57
2022-12-23T10:38:39.339Z,91.05
2022-12-23T10:42:10.576Z,74.53
2022-12-23T10:45:12.605Z,85.60
2022-12-23T10:48:14.619Z,72.68
2022-12-23T10:51:19.844Z,76.78
2022-12-23T10:54:27.179Z,85.13
2022-12-23T10:57:29.586Z,70.80
2022-12-23T11:00:31.768Z,63.97
2022-12-23T11:03:37.727Z,66.88
2022-12-23T11:06:42.503Z,69.47
2022-12-23T11:09:46.975Z,63.45
2022-12-23T11:12:50.666Z,70.93
2022-12-23T11:15:53.070Z,61.43
2022-12-23T11:18:55.070Z,75.07
2022-12-23T11:21:59.001Z,73.03
2022-12-23T11:25:21.226Z,80.68
2022-12-23T11:28:23.250Z,65.05
2022-12-23T11:31:29.354Z,100.95
2022-12-23T11:34:37.621Z,61.38
2022-12-23T11:37:42.987Z,77.33
2022-12-23T11:40:46.988Z,58.80
2022-12-23T11:43:54.888Z,68.88
2022-12-23T11:46:56.978Z,46.33
2022-12-23T11:50:00.528Z,71.93
2022-12-23T11:53:20.141Z,75.68
2022-12-23T11:56:22.213Z,66.80
2022-12-23T11:59:53.467Z,86.70
2022-12-23T12:02:56.785Z,74.25
2022-12-23T12:06:00.603Z,73.07
2022-12-23T12:09:04.609Z,59.67
2022-12-23T12:12:12.375Z,67.05
2022-12-23T12:15:25.650Z,81.70
2022-12-23T12:18:27.978Z,79.37
2022-12-23T12:21:33.413Z,86.03
2022-12-23T12:24:55.661Z,74.97
2022-12-23T12:28:02.893Z,77.60
2022-12-23T12:31:11.529Z,71.50
2022-12-23T12:34:16.449Z,89.70
2022-12-23T12:37:37.050Z,86.07
2022-12-23T12:40:41.143Z,93.17
2022-12-23T12:43:55.620Z,81.60
2022-12-23T12:47:04.084Z,82.03
2022-12-23T12:50:30.329Z,104.40
2022-12-23T12:53:32.646Z,93.63
2022-12-23T12:56:44.197Z,96.53
2022-12-23T12:59:48.524Z,88.78
2022-12-23T13:02:52.310Z,97.72
2022-12-23T13:06:26.610Z,95.60
2022-12-23T13:09:28.572Z,96.80
2022-12-23T13:12:46.228Z,95.73
2022-12-23T13:16:03.529Z,94.13
2022-12-23T13:19:23.613Z,93.88
2022-12-23T13:22:28.304Z,95.10
2022-12-23T13:25:36.130Z,104.63
2022-12-23T13:28:41.621Z,100.47
2022-12-23T13:31:43.643Z,106.25
2022-12-23T13:34:54.642Z,96.80
2022-12-23T13:38:04.303Z,96.82
2022-12-23T13:41:32.490Z,92.45
2022-12-23T13:44:34.921Z,92.00
2022-12-23T13:48:04.716Z,107.07
2022-12-23T13:51:14.597Z,91.50
2022-12-23T13:54:22.104Z,100.77
2022-12-23T13:57:24.083Z,90.70
2022-12-23T14:00:28.146Z,96.40
2022-12-23T14:03:34.283Z,97.45
2022-12-23T14:06:36.817Z,102.55
2022-12-23T14:09:39.162Z,102.15
2022-12-23T14:12:42.678Z,103.88
2022-12-23T14:16:02.792Z,104.23
2022-12-23T14:19:04.882Z,108.15
2022-12-23T14:22:07.450Z,99.90
2022-12-23T14:25:12.202Z,101.57
2022-12-23T14:28:32.739Z,101.05
2022-12-23T14:31:42.348Z,103.88
2022-12-23T14:35:04.573Z,107.13
2022-12-23T14:38:06.595Z,93.80
2022-12-23T14:41:24.931Z,101.65
2022-12-23T14:44:35.844Z,102.40
2022-12-23T14:47:40.369Z,110.57
2022-12-23T14:50:42.967Z,109.90
2022-12-23T14:53:54.095Z,109.40
2022-12-23T14:57:06.679Z,131.37
2022-12-23T15:00:10.287Z,144.00
2022-12-23T15:03:12.553Z,122.70
2022-12-23T15:06:17.256Z,145.02
2022-12-23T15:09:30.340Z,151.73
2022-12-23T15:12:36.686Z,145.02
2022-12-23T15:15:52.561Z,156.40
2022-12-23T15:19:00.329Z,205.53
2022-12-23T15:22:20.686Z,224.38
2022-12-23T15:25:33.641Z,187.63
2022-12-23T15:28:39.459Z,173.80
2022-12-23T15:31:42.772Z,180.48
2022-12-23T15:34:47.150Z,187.52
2022-12-23T15:37:50.216Z,180.98
2022-12-23T15:41:05.950Z,196.68
2022-12-23T15:44:10.555Z,209.50
2022-12-23T15:47:21.573Z,193.75
2022-12-23T15:50:23.711Z,220.37
2022-12-23T15:53:29.325Z,255.68
2022-12-23T15:56:32.988Z,278.45
2022-12-23T15:59:37.390Z,309.00
2022-12-23T16:03:00.471Z,326.88
2022-12-23T16:06:11.283Z,391.73
2022-12-23T16:09:13.222Z,283.83
2022-12-23T16:12:25.685Z,243.18
2022-12-23T16:15:29.195Z,232.93
2022-12-23T16:18:34.493Z,247.30
2022-12-23T16:21:36.793Z,202.53
2022-12-23T16:24:43.784Z,190.60
2022-12-23T16:27:48.245Z,192.88
2022-12-23T16:30:52.394Z,174.33
2022-12-23T16:33:56.353Z,189.52
2022-12-23T16:36:58.367Z,187.00
2022-12-23T16:40:01.977Z,175.40
2022-12-23T16:43:04.137Z,161.95
2022-12-23T16:46:06.780Z,183.90
2022-12-23T16:49:14.090Z,187.55
2022-12-23T16:52:16.477Z,190.77
2022-12-23T16:55:19.588Z,180.27
2022-12-23T16:58:21.559Z,188.85
2022-12-23T17:01:24.954Z,196.13
2022-12-23T17:04:27.091Z,259.73
2022-12-23T17:07:29.088Z,253.88
2022-12-23T17:10:31.191Z,262.48
2022-12-23T17:13:33.200Z,286.52
2022-12-23T17:16:35.206Z,315.60
2022-12-23T17:19:37.254Z,361.40
2022-12-23T17:22:39.673Z,417.00
2022-12-23T17:25:41.771Z,368.13
2022-12-23T17:28:43.906Z,430.33
2022-12-23T17:31:47.204Z,400.90
2022-12-23T17:34:49.294Z,420.85
2022-12-23T17:37:51.416Z,453.50
2022-12-23T17:40:55.103Z,436.90
2022-12-23T17:43:57.294Z,403.30
2022-12-23T17:46:59.410Z,480.98
2022-12-23T17:50:01.463Z,445.30
2022-12-23T17:53:03.518Z,335.63
2022-12-23T17:56:15.697Z,396.42
2022-12-23T17:59:17.840Z,401.85
2022-12-23T18:02:22.663Z,408.70
2022-12-23T18:05:26.373Z,356.02
2022-12-23T18:08:28.401Z,343.15
2022-12-23T18:11:33.520Z,372.13
2022-12-23T18:14:35.546Z,379.67
2022-12-23T18:17:37.542Z,325.65
2022-12-23T18:20:40.753Z,283.05
2022-12-23T18:23:42.988Z,293.10
2022-12-23T18:26:45.295Z,254.48
2022-12-23T18:29:48.082Z,285.70
2022-12-23T18:32:50.143Z,288.90
2022-12-23T18:35:52.184Z,290.58
2022-12-23T18:38:54.559Z,308.20
2022-12-23T18:41:56.617Z,251.95
2022-12-23T18:44:58.576Z,309.63
2022-12-23T18:48:01.389Z,235.80
2022-12-23T18:51:03.475Z,247.93
2022-12-23T18:54:05.457Z,240.67
2022-12-23T18:57:07.497Z,268.58
2022-12-23T19:00:14.538Z,299.63
2022-12-23T19:03:22.626Z,310.87
2022-12-23T19:06:24.649Z,308.08
2022-12-23T19:09:26.767Z,288.25
2022-12-23T19:12:28.751Z,281.65
2022-12-23T19:15:31.394Z,230.30
2022-12-23T19:18:33.470Z,279.20
2022-12-23T19:21:35.770Z,288.23
2022-12-23T19:24:42.493Z,344.27
2022-12-23T19:27:53.966Z,284.83
2022-12-23T19:30:56.075Z,257.85
2022-12-23T19:33:59.468Z,314.53
2022-12-23T19:37:01.529Z,295.55
2022-12-23T19:40:03.986Z,295.38
2022-12-23T19:43:06.086Z,235.90
2022-12-23T19:46:08.984Z,255.75
2022-12-23T19:49:17.440Z,284.38
2022-12-23T19:52:21.442Z,295.48
2022-12-23T19:55:23.593Z,274.30
2022-12-23T19:58:25.920Z,336.20
2022-12-23T20:01:28.314Z,342.17
2022-12-23T20:04:30.411Z,293.37
2022-12-23T20:07:32.446Z,288.42
2022-12-23T20:10:34.520Z,258.08
2022-12-23T20:13:36.643Z,224.45
2022-12-23T20:16:39.337Z,233.63
2022-12-23T20:19:46.034Z,206.02
2022-12-23T20:22:48.582Z,223.25
2022-12-23T20:25:51.081Z,218.80
2022-12-23T20:28:53.280Z,236.98
2022-12-23T20:31:55.299Z,246.73
2022-12-23T20:34:57.339Z,181.87
2022-12-23T20:37:59.355Z,248.60
2022-12-23T20:41:02.960Z,284.33
2022-12-23T20:47:27.121Z,177.27
2022-12-23T20:50:29.090Z,166.02
2022-12-23T20:53:31.326Z,172.23
2022-12-23T20:56:33.292Z,196.50
2022-12-23T20:59:35.639Z,145.95
2022-12-23T21:02:37.812Z,189.07
2022-12-23T21:05:40.023Z,159.73
2022-12-23T21:08:43.293Z,150.57
2022-12-23T21:11:46.684Z,201.15
2022-12-23T21:14:48.675Z,193.50
2022-12-23T21:17:50.662Z,269.05
2022-12-23T21:20:52.653Z,289.23
2022-12-23T21:23:55.546Z,253.30
2022-12-23T21:26:57.671Z,279.70
2022-12-23T21:29:59.753Z,267.33
2022-12-23T21:33:03.676Z,296.58
2022-12-23T21:36:06.578Z,272.83
2022-12-23T21:39:11.275Z,273.23
2022-12-23T21:42:13.395Z,264.75
2022-12-23T21:45:15.606Z,258.35
2022-12-23T21:48:17.680Z,249.50
2022-12-23T21:51:21.277Z,215.98
2022-12-23T21:54:23.402Z,197.40
2022-12-23T21:57:25.438Z,210.10
2022-12-23T22:00:27.474Z,199.35
2022-12-23T22:03:29.488Z,187.20
2022-12-23T22:06:32.925Z,187.53
2022-12-23T22:09:34.886Z,177.57
2022-12-23T22:12:38.125Z,152.70
2022-12-23T22:15:41.066Z,143.13
2022-12-23T22:18:43.102Z,141.80
2022-12-23T22:21:45.128Z,144.43
2022-12-23T22:24:47.156Z,141.30
2022-12-23T22:27:49.158Z,119.00
2022-12-23T22:30:51.218Z,133.65
2022-12-23T22:33:53.239Z,136.55
2022-12-23T22:36:55.266Z,146.97
2022-12-23T22:39:57.312Z,147.80
2022-12-23T22:42:59.350Z,154.60
2022-12-23T22:46:01.897Z,137.88
2022-12-23T22:49:04.497Z,143.90
2022-12-23T22:52:06.572Z,136.60
2022-12-23T22:55:09.138Z,140.63
2022-12-23T22:58:11.157Z,160.43
2022-12-23T23:01:19.403Z,157.93
2022-12-23T23:04:21.511Z,162.65
2022-12-23T23:07:23.542Z,163.07
2022-12-23T23:10:25.583Z,169.80
2022-12-23T23:13:29.371Z,165.70
2022-12-23T23:16:32.018Z,164.25
2022-12-23T23:19:34.108Z,146.65
2022-12-23T23:22:36.138Z,189.50
2022-12-23T23:25:38.304Z,159.57
2022-12-23T23:28:40.723Z,154.50
2022-12-23T23:31:44.055Z,162.77
2022-12-23T23:34:46.594Z,145.77
2022-12-23T23:37:48.681Z,157.50
2022-12-23T23:40:54.411Z,183.38
2022-12-23T23:43:56.393Z,155.95
2022-12-23T23:46:58.400Z,154.80
2022-12-23T23:50:04.429Z,148.82
2022-12-23T23:53:06.742Z,151.05
2022-12-23T23:56:08.810Z,183.15
2022-12-23T23:59:10.821Z,178.47
